sensor_id;sensor_type;location;lat;lon;timestamp;pressure;altitude;pressure_sealevel;temperature;humidity
21431;BME280;10876;49.038;10.608;2023-04-30T00:25:42;99644.31;;;10.12;100.00
21431;BME280;10876;49.038;10.608;2023-04-30T00:28:09;99644.63;;;10.11;100.00
21431;BME280;10876;49.038;10.608;2023-04-30T01:14:56;99700.53;;;9.95;100.00
21431;BME280;10876;49.038;10.608;2023-04-30T01:17:32;99710.69;;;9.94;100.00
21431;BME280;10876;49.038;10.608;2023-04-30T01:20:01;99707.69;;;9.90;100.00
21431;BME280;10876;49.038;10.608;2023-04-30T01:22:35;99703.31;;;9.89;100.00
21431;BME280;10876;49.038;10.608;2023-04-30T01:25:34;99707.16;;;9.88;100.00
21431;BME280;10876;49.038;10.608;2023-04-30T01:28:04;99705.53;;;9.87;100.00
21431;BME280;10876;49.038;10.608;2023-04-30T01:30:33;99712.38;;;9.85;100.00
21431;BME280;10876;49.038;10.608;2023-04-30T01:33:00;99707.72;;;9.80;100.00
21431;BME280;10876;49.038;10.608;2023-04-30T01:35:45;99711.56;;;9.84;100.00
21431;BME280;10876;49.038;10.608;2023-04-30T01:38:27;99732.34;;;9.85;100.00
21431;BME280;10876;49.038;10.608;2023-04-30T01:41:05;99738.94;;;9.79;100.00
21431;BME280;10876;49.038;10.608;2023-04-30T02:12:08;99765.72;;;9.87;100.00
21431;BME280;10876;49.038;10.608;2023-04-30T02:14:35;99770.34;;;9.87;100.00
21431;BME280;10876;49.038;10.608;2023-04-30T02:17:02;99766.81;;;9.86;100.00
21431;BME280;10876;49.038;10.608;2023-04-30T02:19:29;99764.06;;;9.86;100.00
21431;BME280;10876;49.038;10.608;2023-04-30T02:21:55;99779.69;;;9.86;100.00
21431;BME280;10876;49.038;10.608;2023-04-30T02:24:22;99778.31;;;9.83;100.00
21431;BME280;10876;49.038;10.608;2023-04-30T02:26:49;99773.97;;;9.77;100.00
21431;BME280;10876;49.038;10.608;2023-04-30T02:29:17;99781.59;;;9.80;100.00
21431;BME280;10876;49.038;10.608;2023-04-30T02:31:43;99775.06;;;9.76;100.00
21431;BME280;10876;49.038;10.608;2023-04-30T02:34:10;99783.78;;;9.78;100.00
21431;BME280;10876;49.038;10.608;2023-04-30T02:36:37;99782.16;;;9.77;100.00
21431;BME280;10876;49.038;10.608;2023-04-30T02:39:03;99775.63;;;9.73;100.00
21431;BME280;10876;49.038;10.608;2023-04-30T02:41:30;99772.91;;;9.68;100.00
21431;BME280;10876;49.038;10.608;2023-04-30T02:43:57;99773.16;;;9.72;100.00
21431;BME280;10876;49.038;10.608;2023-04-30T02:46:25;99774.53;;;9.74;100.00
21431;BME280;10876;49.038;10.608;2023-04-30T02:48:51;99774.78;;;9.73;100.00
21431;BME280;10876;49.038;10.608;2023-04-30T02:51:18;99770.97;;;9.74;100.00
21431;BME280;10876;49.038;10.608;2023-04-30T02:53:45;99769.59;;;9.71;100.00
21431;BME280;10876;49.038;10.608;2023-04-30T02:56:11;99763.59;;;9.69;100.00
21431;BME280;10876;49.038;10.608;2023-04-30T02:58:38;99771.25;;;9.67;100.00
21431;BME280;10876;49.038;10.608;2023-04-30T03:01:05;99769.63;;;9.66;100.00
21431;BME280;10876;49.038;10.608;2023-04-30T03:03:33;99769.63;;;9.66;100.00
21431;BME280;10876;49.038;10.608;2023-04-30T03:06:00;99760.31;;;9.67;100.00
21431;BME280;10876;49.038;10.608;2023-04-30T03:08:26;99759.22;;;9.73;100.00
21431;BME280;10876;49.038;10.608;2023-04-30T03:10:53;99765.75;;;9.72;100.00
21431;BME280;10876;49.038;10.608;2023-04-30T03:13:20;99759.78;;;9.70;100.00
21431;BME280;10876;49.038;10.608;2023-04-30T03:15:46;99772.91;;;9.68;100.00
21431;BME280;10876;49.038;10.608;2023-04-30T03:18:13;99768.81;;;9.65;100.00
21431;BME280;10876;49.038;10.608;2023-04-30T03:20:41;99778.13;;;9.64;100.00
21431;BME280;10876;49.038;10.608;2023-04-30T03:23:07;99779.50;;;9.62;100.00
21431;BME280;10876;49.038;10.608;2023-04-30T03:25:34;99781.13;;;9.63;100.00
21431;BME280;10876;49.038;10.608;2023-04-30T03:28:01;99781.38;;;9.61;100.00
21431;BME280;10876;49.038;10.608;2023-04-30T03:30:27;99780.56;;;9.61;100.00
21431;BME280;10876;49.038;10.608;2023-04-30T03:32:54;99781.13;;;9.63;100.00
21431;BME280;10876;49.038;10.608;2023-04-30T03:35:21;99774.81;;;9.67;100.00
21431;BME280;10876;49.038;10.608;2023-04-30T03:37:49;99771.00;;;9.63;100.00
21431;BME280;10876;49.038;10.608;2023-04-30T03:40:15;99777.84;;;9.61;100.00
21431;BME280;10876;49.038;10.608;2023-04-30T03:42:42;99773.47;;;9.65;100.00
21431;BME280;10876;49.038;10.608;2023-04-30T03:45:09;99777.84;;;9.61;100.00
21431;BME280;10876;49.038;10.608;2023-04-30T03:47:36;99777.28;;;9.64;100.00
21431;BME280;10876;49.038;10.608;2023-04-30T03:50:03;99771.00;;;9.63;100.00
21431;BME280;10876;49.038;10.608;2023-04-30T03:52:30;99768.56;;;9.62;100.00
21431;BME280;10876;49.038;10.608;2023-04-30T03:54:59;99767.72;;;9.61;100.00
21431;BME280;10876;49.038;10.608;2023-04-30T03:57:26;99769.13;;;9.59;100.00
21431;BME280;10876;49.038;10.608;2023-04-30T03:59:52;99773.72;;;9.58;100.00
21431;BME280;10876;49.038;10.608;2023-04-30T04:02:19;99771.84;;;9.54;100.00
21431;BME280;10876;49.038;10.608;2023-04-30T04:04:46;99768.56;;;9.52;100.00
21431;BME280;10876;49.038;10.608;2023-04-30T04:07:13;99775.16;;;9.45;100.00
21431;BME280;10876;49.038;10.608;2023-04-30T04:09:40;99760.38;;;9.46;100.00
21431;BME280;10876;49.038;10.608;2023-04-30T04:12:08;99764.75;;;9.47;100.00
21431;BME280;10876;49.038;10.608;2023-04-30T04:14:35;99769.13;;;9.48;100.00
21431;BME280;10876;49.038;10.608;2023-04-30T04:17:01;99766.94;;;9.56;100.00
21431;BME280;10876;49.038;10.608;2023-04-30T04:19:30;99768.00;;;9.55;100.00
21431;BME280;10876;49.038;10.608;2023-04-30T04:21:56;99770.19;;;9.53;100.00
21431;BME280;10876;49.038;10.608;2023-04-30T04:24:23;99756.00;;;9.51;100.00
21431;BME280;10876;49.038;10.608;2023-04-30T04:26:50;99764.19;;;9.56;100.00
21431;BME280;10876;49.038;10.608;2023-04-30T04:29:19;99762.84;;;9.53;100.00
21431;BME280;10876;49.038;10.608;2023-04-30T04:31:45;99759.81;;;9.55;100.00
21431;BME280;10876;49.038;10.608;2023-04-30T04:34:13;99757.63;;;9.52;100.00
21431;BME280;10876;49.038;10.608;2023-04-30T04:36:40;99754.34;;;9.50;100.00
21431;BME280;10876;49.038;10.608;2023-04-30T04:39:06;99757.06;;;9.60;100.00
21431;BME280;10876;49.038;10.608;2023-04-30T04:41:33;99757.31;;;9.58;100.00
21431;BME280;10876;49.038;10.608;2023-04-30T04:44:00;99754.56;;;9.63;100.00
21431;BME280;10876;49.038;10.608;2023-04-30T04:46:29;99746.66;;;9.62;100.00
21431;BME280;10876;49.038;10.608;2023-04-30T04:48:56;99749.41;;;9.62;100.00
21431;BME280;10876;49.038;10.608;2023-04-30T04:51:23;99747.75;;;9.66;100.00
21431;BME280;10876;49.038;10.608;2023-04-30T04:53:51;99743.38;;;9.70;100.00
21431;BME280;10876;49.038;10.608;2023-04-30T04:56:17;99742.50;;;9.69;100.00
21431;BME280;10876;49.038;10.608;2023-04-30T04:58:44;99735.91;;;9.76;100.00
21431;BME280;10876;49.038;10.608;2023-04-30T05:01:11;99735.91;;;9.76;100.00
21431;BME280;10876;49.038;10.608;2023-04-30T05:03:39;99729.59;;;9.85;100.00
21431;BME280;10876;49.038;10.608;2023-04-30T05:06:06;99732.34;;;9.80;100.00
21431;BME280;10876;49.038;10.608;2023-04-30T05:08:34;99726.88;;;9.85;100.00
21431;BME280;10876;49.038;10.608;2023-04-30T05:11:01;99716.47;;;9.87;100.00
21431;BME280;10876;49.038;10.608;2023-04-30T05:13:28;99719.13;;;9.98;100.00
21431;BME280;10876;49.038;10.608;2023-04-30T05:15:55;99722.84;;;10.22;100.00
21431;BME280;10876;49.038;10.608;2023-04-30T05:18:22;99718.84;;;10.49;100.00
21431;BME280;10876;49.038;10.608;2023-04-30T05:20:50;99713.63;;;10.81;100.00
21431;BME280;10876;49.038;10.608;2023-04-30T05:23:17;99707.34;;;11.10;100.00
21431;BME280;10876;49.038;10.608;2023-04-30T05:25:45;99692.34;;;11.26;100.00
21431;BME280;10876;49.038;10.608;2023-04-30T05:28:11;99669.25;;;11.33;100.00
21431;BME280;10876;49.038;10.608;2023-04-30T05:30:38;99659.69;;;11.54;100.00
21431;BME280;10876;49.038;10.608;2023-04-30T05:33:05;99642.41;;;11.54;100.00
21431;BME280;10876;49.038;10.608;2023-04-30T05:36:03;99625.56;;;11.60;100.00
21431;BME280;10876;49.038;10.608;2023-04-30T05:38:30;99603.25;;;11.67;100.00
21431;BME280;10876;49.038;10.608;2023-04-30T05:40:57;99585.25;;;11.18;100.00
21431;BME280;10876;49.038;10.608;2023-04-30T05:43:24;99567.31;;;11.25;100.00
21431;BME280;10876;49.038;10.608;2023-04-30T05:45:56;99546.81;;;11.42;100.00
21431;BME280;10876;49.038;10.608;2023-04-30T05:48:23;99536.28;;;11.49;100.00
21431;BME280;10876;49.038;10.608;2023-04-30T05:50:54;99508.81;;;11.87;100.00
21431;BME280;10876;49.038;10.608;2023-04-30T05:53:22;99483.50;;;11.90;100.00
21431;BME280;10876;49.038;10.608;2023-04-30T05:55:49;99473.53;;;12.27;100.00
21431;BME280;10876;49.038;10.608;2023-04-30T05:58:16;99442.38;;;12.73;100.00
21431;BME280;10876;49.038;10.608;2023-04-30T06:00:43;99417.09;;;12.98;100.00
21431;BME280;10876;49.038;10.608;2023-04-30T06:03:10;99378.19;;;13.05;100.00
21431;BME280;10876;49.038;10.608;2023-04-30T06:05:37;99353.03;;;13.20;100.00
21431;BME280;10876;49.038;10.608;2023-04-30T06:08:06;99317.94;;;13.71;100.00
21431;BME280;10876;49.038;10.608;2023-04-30T06:10:34;99277.53;;;13.97;100.00
21431;BME280;10876;49.038;10.608;2023-04-30T06:13:02;99239.81;;;14.07;100.00
21431;BME280;10876;49.038;10.608;2023-04-30T06:15:29;99188.09;;;14.04;100.00
21431;BME280;10876;49.038;10.608;2023-04-30T06:17:56;99154.09;;;14.00;100.00
21431;BME280;10876;49.038;10.608;2023-04-30T06:20:23;99121.03;;;14.00;100.00
21431;BME280;10876;49.038;10.608;2023-04-30T06:22:51;99086.50;;;14.19;100.00
21431;BME280;10876;49.038;10.608;2023-04-30T06:25:18;99042.47;;;14.02;100.00
21431;BME280;10876;49.038;10.608;2023-04-30T06:27:48;99007.47;;;14.03;100.00
21431;BME280;10876;49.038;10.608;2023-04-30T06:30:16;98970.84;;;14.02;100.00
21431;BME280;10876;49.038;10.608;2023-04-30T06:32:43;98953.78;;;14.64;100.00
21431;BME280;10876;49.038;10.608;2023-04-30T06:35:10;98924.56;;;14.34;100.00
21431;BME280;10876;49.038;10.608;2023-04-30T06:37:37;98896.59;;;14.14;100.00
21431;BME280;10876;49.038;10.608;2023-04-30T06:40:06;98864.69;;;14.05;100.00
21431;BME280;10876;49.038;10.608;2023-04-30T06:42:34;98861.84;;;14.22;100.00
21431;BME280;10876;49.038;10.608;2023-04-30T06:45:03;98854.31;;;14.40;100.00
21431;BME280;10876;49.038;10.608;2023-04-30T06:47:32;98842.28;;;14.45;100.00
21431;BME280;10876;49.038;10.608;2023-04-30T06:50:00;98839.22;;;14.97;100.00
21431;BME280;10876;49.038;10.608;2023-04-30T06:52:28;98817.34;;;15.46;100.00
21431;BME280;10876;49.038;10.608;2023-04-30T06:54:55;98796.13;;;15.38;100.00
21431;BME280;10876;49.038;10.608;2023-04-30T06:57:28;98778.59;;;14.67;100.00
21431;BME280;10876;49.038;10.608;2023-04-30T06:59:55;98775.94;;;14.50;100.00
21431;BME280;10876;49.038;10.608;2023-04-30T07:02:24;98779.28;;;15.18;100.00
21431;BME280;10876;49.038;10.608;2023-04-30T07:04:52;98782.34;;;15.83;100.00
21431;BME280;10876;49.038;10.608;2023-04-30T07:07:19;98766.28;;;15.64;100.00
21431;BME280;10876;49.038;10.608;2023-04-30T07:09:47;98761.09;;;14.84;100.00
21431;BME280;10876;49.038;10.608;2023-04-30T07:12:15;98760.38;;;14.75;100.00
21431;BME280;10876;49.038;10.608;2023-04-30T07:14:42;98771.94;;;14.89;100.00
21431;BME280;10876;49.038;10.608;2023-04-30T07:17:09;98772.78;;;15.02;100.00
21431;BME280;10876;49.038;10.608;2023-04-30T07:19:38;98764.28;;;14.53;100.00
21431;BME280;10876;49.038;10.608;2023-04-30T07:22:05;98766.03;;;14.78;100.00
21431;BME280;10876;49.038;10.608;2023-04-30T07:24:32;98760.56;;;14.49;100.00
21431;BME280;10876;49.038;10.608;2023-04-30T07:27:02;98767.88;;;14.45;100.00
21431;BME280;10876;49.038;10.608;2023-04-30T07:29:34;98775.31;;;14.53;100.00
21431;BME280;10876;49.038;10.608;2023-04-30T07:32:01;98774.03;;;14.71;100.00
21431;BME280;10876;49.038;10.608;2023-04-30T07:34:29;98770.34;;;15.33;100.00
21431;BME280;10876;49.038;10.608;2023-04-30T07:36:57;98775.69;;;14.84;100.00
21431;BME280;10876;49.038;10.608;2023-04-30T07:39:28;98779.28;;;15.64;100.00
21431;BME280;10876;49.038;10.608;2023-04-30T07:41:56;98782.34;;;15.38;100.00
21431;BME280;10876;49.038;10.608;2023-04-30T07:44:26;98786.91;;;15.33;100.00
21431;BME280;10876;49.038;10.608;2023-04-30T07:46:59;98776.63;;;15.55;100.00
21431;BME280;10876;49.038;10.608;2023-04-30T07:49:29;98789.34;;;15.68;100.00
21431;BME280;10876;49.038;10.608;2023-04-30T07:52:00;98800.75;;;16.16;100.00
21431;BME280;10876;49.038;10.608;2023-04-30T07:54:30;98808.69;;;16.30;100.00
21431;BME280;10876;49.038;10.608;2023-04-30T07:57:04;98812.03;;;16.23;100.00
21431;BME280;10876;49.038;10.608;2023-04-30T07:59:31;98827.78;;;16.47;100.00
21431;BME280;10876;49.038;10.608;2023-04-30T08:02:02;98827.59;;;16.40;100.00
21431;BME280;10876;49.038;10.608;2023-04-30T08:04:32;98849.84;;;15.73;100.00
21431;BME280;10876;49.038;10.608;2023-04-30T08:07:02;98854.31;;;16.24;100.00
21431;BME280;10876;49.038;10.608;2023-04-30T08:09:29;98861.09;;;16.63;100.00
21431;BME280;10876;49.038;10.608;2023-04-30T08:11:56;98872.63;;;16.40;100.00
21431;BME280;10876;49.038;10.608;2023-04-30T08:14:27;98888.88;;;16.54;100.00
21431;BME280;10876;49.038;10.608;2023-04-30T08:16:57;98927.56;;;16.30;100.00
21431;BME280;10876;49.038;10.608;2023-04-30T08:19:25;98933.53;;;15.32;100.00
21431;BME280;10876;49.038;10.608;2023-04-30T08:21:53;98930.28;;;16.05;100.00
21431;BME280;10876;49.038;10.608;2023-04-30T08:24:22;98933.88;;;15.51;100.00
21431;BME280;10876;49.038;10.608;2023-04-30T08:26:49;98945.25;;;15.08;100.00
21431;BME280;10876;49.038;10.608;2023-04-30T08:29:16;98928.34;;;15.09;100.00
21431;BME280;10876;49.038;10.608;2023-04-30T08:31:43;98922.34;;;14.86;100.00
21431;BME280;10876;49.038;10.608;2023-04-30T08:34:09;98925.03;;;14.74;100.00
21431;BME280;10876;49.038;10.608;2023-04-30T08:36:37;98914.75;;;14.83;100.00
21431;BME280;10876;49.038;10.608;2023-04-30T08:39:04;98925.53;;;14.68;100.00
21431;BME280;10876;49.038;10.608;2023-04-30T08:41:35;98922.81;;;14.59;100.00
21431;BME280;10876;49.038;10.608;2023-04-30T08:44:02;98933.63;;;14.34;100.00
21431;BME280;10876;49.038;10.608;2023-04-30T08:46:31;98918.94;;;14.60;100.00
21431;BME280;10876;49.038;10.608;2023-04-30T08:49:03;98914.28;;;14.52;100.00
21431;BME280;10876;49.038;10.608;2023-04-30T08:51:33;98924.91;;;14.62;100.00
21431;BME280;10876;49.038;10.608;2023-04-30T08:54:03;98920.34;;;15.38;100.00
21431;BME280;10876;49.038;10.608;2023-04-30T08:56:30;98965.63;;;14.95;100.00
21431;BME280;10876;49.038;10.608;2023-04-30T08:59:01;98985.25;;;14.63;100.00
21431;BME280;10876;49.038;10.608;2023-04-30T09:01:29;99001.47;;;14.56;100.00
21431;BME280;10876;49.038;10.608;2023-04-30T09:03:57;99002.16;;;14.92;100.00
21431;BME280;10876;49.038;10.608;2023-04-30T09:06:24;99008.59;;;14.96;100.00
21431;BME280;10876;49.038;10.608;2023-04-30T09:08:54;98990.72;;;15.94;100.00
21431;BME280;10876;49.038;10.608;2023-04-30T09:11:25;99032.47;;;15.51;100.00
21431;BME280;10876;49.038;10.608;2023-04-30T09:13:54;99061.78;;;14.67;100.00
21431;BME280;10876;49.038;10.608;2023-04-30T09:16:24;99040.94;;;15.16;100.00
21431;BME280;10876;49.038;10.608;2023-04-30T09:18:51;99071.44;;;16.00;100.00
21431;BME280;10876;49.038;10.608;2023-04-30T09:21:30;99113.41;;;15.72;100.00
21431;BME280;10876;49.038;10.608;2023-04-30T09:24:04;99131.38;;;15.49;100.00
21431;BME280;10876;49.038;10.608;2023-04-30T09:26:36;99143.41;;;15.15;100.00
21431;BME280;10876;49.038;10.608;2023-04-30T09:29:06;99154.59;;;14.62;100.00
21431;BME280;10876;49.038;10.608;2023-04-30T09:31:41;99147.06;;;14.80;100.00
21431;BME280;10876;49.038;10.608;2023-04-30T09:34:12;99143.72;;;15.13;100.00
21431;BME280;10876;49.038;10.608;2023-04-30T09:36:51;99129.13;;;15.51;100.00
21431;BME280;10876;49.038;10.608;2023-04-30T09:39:20;99151.91;;;15.30;100.00
21431;BME280;10876;49.038;10.608;2023-04-30T09:41:50;99155.38;;;15.19;100.00
21431;BME280;10876;49.038;10.608;2023-04-30T09:44:27;99184.13;;;15.18;100.00
21431;BME280;10876;49.038;10.608;2023-04-30T09:47:12;99227.81;;;15.07;100.00
21431;BME280;10876;49.038;10.608;2023-04-30T09:49:41;99209.97;;;15.04;100.00
21431;BME280;10876;49.038;10.608;2023-04-30T09:52:09;99263.88;;;14.76;100.00
21431;BME280;10876;49.038;10.608;2023-04-30T09:54:37;99254.91;;;15.22;100.00
21431;BME280;10876;49.038;10.608;2023-04-30T09:57:07;99250.78;;;15.46;100.00
21431;BME280;10876;49.038;10.608;2023-04-30T09:59:36;99258.25;;;15.45;100.00
21431;BME280;10876;49.038;10.608;2023-04-30T10:02:05;99289.28;;;15.33;100.00
21431;BME280;10876;49.038;10.608;2023-04-30T10:04:35;99270.44;;;15.36;100.00
21431;BME280;10876;49.038;10.608;2023-04-30T10:07:05;99226.88;;;15.50;100.00
21431;BME280;10876;49.038;10.608;2023-04-30T10:09:38;99272.78;;;14.81;100.00
21431;BME280;10876;49.038;10.608;2023-04-30T10:12:10;99291.94;;;14.86;100.00
21431;BME280;10876;49.038;10.608;2023-04-30T10:14:45;99308.66;;;14.99;100.00
21431;BME280;10876;49.038;10.608;2023-04-30T10:17:15;99278.91;;;15.30;100.00
21431;BME280;10876;49.038;10.608;2023-04-30T10:19:45;99322.19;;;15.56;100.00
21431;BME280;10876;49.038;10.608;2023-04-30T10:22:20;99312.22;;;16.70;100.00
21431;BME280;10876;49.038;10.608;2023-04-30T10:24:47;99344.53;;;15.98;100.00
21431;BME280;10876;49.038;10.608;2023-04-30T10:27:16;99338.31;;;15.54;100.00
21431;BME280;10876;49.038;10.608;2023-04-30T10:29:44;99368.06;;;15.31;100.00
21431;BME280;10876;49.038;10.608;2023-04-30T10:32:17;99357.00;;;15.05;100.00
21431;BME280;10876;49.038;10.608;2023-04-30T10:35:04;99342.09;;;15.15;100.00
21431;BME280;10876;49.038;10.608;2023-04-30T10:37:39;99360.75;;;14.92;100.00
21431;BME280;10876;49.038;10.608;2023-04-30T10:40:11;99350.69;;;14.96;100.00
21431;BME280;10876;49.038;10.608;2023-04-30T10:42:44;99353.28;;;14.83;100.00
21431;BME280;10876;49.038;10.608;2023-04-30T10:45:12;99323.75;;;14.93;100.00
21431;BME280;10876;49.038;10.608;2023-04-30T10:47:41;99296.78;;;15.24;100.00
21431;BME280;10876;49.038;10.608;2023-04-30T10:50:12;99316.84;;;15.68;100.00
21431;BME280;10876;49.038;10.608;2023-04-30T10:52:39;99319.66;;;16.28;100.00
21431;BME280;10876;49.038;10.608;2023-04-30T10:55:07;99306.78;;;16.32;100.00
21431;BME280;10876;49.038;10.608;2023-04-30T10:57:39;99340.22;;;15.80;100.00
21431;BME280;10876;49.038;10.608;2023-04-30T11:00:24;99325.16;;;15.33;100.00
21431;BME280;10876;49.038;10.608;2023-04-30T11:02:56;99322.94;;;15.01;100.00
21431;BME280;10876;49.038;10.608;2023-04-30T11:05:34;99350.03;;;14.99;100.00
21431;BME280;10876;49.038;10.608;2023-04-30T11:08:02;99358.13;;;14.60;100.00
21431;BME280;10876;49.038;10.608;2023-04-30T11:10:34;99342.88;;;14.63;100.00
21431;BME280;10876;49.038;10.608;2023-04-30T11:13:03;99338.34;;;15.02;100.00
21431;BME280;10876;49.038;10.608;2023-04-30T11:15:34;99345.97;;;15.31;100.00
21431;BME280;10876;49.038;10.608;2023-04-30T11:18:06;99377.31;;;14.92;100.00
21431;BME280;10876;49.038;10.608;2023-04-30T11:20:39;99365.59;;;14.60;100.00
21431;BME280;10876;49.038;10.608;2023-04-30T11:23:10;99317.56;;;14.61;100.00
21431;BME280;10876;49.038;10.608;2023-04-30T11:25:40;99299.41;;;14.77;100.00
21431;BME280;10876;49.038;10.608;2023-04-30T11:28:10;99291.63;;;14.97;100.00
21431;BME280;10876;49.038;10.608;2023-04-30T11:30:39;99298.75;;;15.15;100.00
21431;BME280;10876;49.038;10.608;2023-04-30T11:33:06;99316.06;;;15.33;100.00
21431;BME280;10876;49.038;10.608;2023-04-30T11:35:35;99313.34;;;15.89;100.00
21431;BME280;10876;49.038;10.608;2023-04-30T11:38:04;99347.50;;;15.67;100.00
21431;BME280;10876;49.038;10.608;2023-04-30T11:40:34;99320.41;;;15.60;100.00
21431;BME280;10876;49.038;10.608;2023-04-30T11:43:02;99367.81;;;15.62;100.00
21431;BME280;10876;49.038;10.608;2023-04-30T11:45:29;99326.34;;;16.27;100.00
21431;BME280;10876;49.038;10.608;2023-04-30T11:47:56;99351.91;;;16.74;100.00
21431;BME280;10876;49.038;10.608;2023-04-30T11:50:25;99368.94;;;16.55;100.00
21431;BME280;10876;49.038;10.608;2023-04-30T11:52:56;99383.69;;;16.00;100.00
21431;BME280;10876;49.038;10.608;2023-04-30T11:55:24;99400.34;;;15.65;100.00
21431;BME280;10876;49.038;10.608;2023-04-30T11:57:53;99419.66;;;15.39;100.00
21431;BME280;10876;49.038;10.608;2023-04-30T12:00:24;99403.94;;;15.40;100.00
21431;BME280;10876;49.038;10.608;2023-04-30T12:02:52;99391.56;;;15.63;100.00
21431;BME280;10876;49.038;10.608;2023-04-30T12:05:20;99347.53;;;15.58;100.00
21431;BME280;10876;49.038;10.608;2023-04-30T12:07:48;99376.31;;;15.57;100.00
21431;BME280;10876;49.038;10.608;2023-04-30T12:10:19;99385.25;;;15.28;100.00
21431;BME280;10876;49.038;10.608;2023-04-30T12:12:46;99377.94;;;15.41;100.00
21431;BME280;10876;49.038;10.608;2023-04-30T12:15:16;99384.13;;;15.38;100.00
21431;BME280;10876;49.038;10.608;2023-04-30T12:17:43;99359.44;;;15.15;100.00
21431;BME280;10876;49.038;10.608;2023-04-30T12:20:12;99378.91;;;15.27;100.00
21431;BME280;10876;49.038;10.608;2023-04-30T12:22:39;99384.41;;;15.62;100.00
21431;BME280;10876;49.038;10.608;2023-04-30T12:25:08;99404.91;;;15.44;100.00
21431;BME280;10876;49.038;10.608;2023-04-30T12:27:40;99397.06;;;15.81;100.00
21431;BME280;10876;49.038;10.608;2023-04-30T12:30:08;99384.41;;;16.27;100.00
21431;BME280;10876;49.038;10.608;2023-04-30T12:32:40;99401.88;;;16.01;100.00
21431;BME280;10876;49.038;10.608;2023-04-30T12:35:08;99418.19;;;15.59;100.00
21431;BME280;10876;49.038;10.608;2023-04-30T12:37:41;99404.91;;;15.44;100.00
21431;BME280;10876;49.038;10.608;2023-04-30T12:40:09;99432.19;;;15.37;100.00
21431;BME280;10876;49.038;10.608;2023-04-30T12:42:36;99410.44;;;15.26;100.00
21431;BME280;10876;49.038;10.608;2023-04-30T12:45:06;99414.63;;;15.50;100.00
21431;BME280;10876;49.038;10.608;2023-04-30T12:47:37;99408.41;;;15.88;100.00
21431;BME280;10876;49.038;10.608;2023-04-30T12:50:08;99416.34;;;16.45;100.00
21431;BME280;10876;49.038;10.608;2023-04-30T12:52:35;99404.41;;;16.24;100.00
21431;BME280;10876;49.038;10.608;2023-04-30T12:55:16;99405.81;;;17.19;100.00
21431;BME280;10876;49.038;10.608;2023-04-30T12:58:07;99425.69;;;17.00;100.00
21431;BME280;10876;49.038;10.608;2023-04-30T13:00:46;99441.13;;;16.33;100.00
21431;BME280;10876;49.038;10.608;2023-04-30T13:03:14;99461.06;;;16.00;100.00
21431;BME280;10876;49.038;10.608;2023-04-30T13:05:45;99458.66;;;15.72;100.00
21431;BME280;10876;49.038;10.608;2023-04-30T13:08:13;99422.28;;;15.44;100.00
21431;BME280;10876;49.038;10.608;2023-04-30T13:10:40;99430.72;;;15.22;100.00
21431;BME280;10876;49.038;10.608;2023-04-30T13:13:07;99438.84;;;15.44;100.00
21431;BME280;10876;49.038;10.608;2023-04-30T13:15:34;99454.22;;;16.06;100.00
21431;BME280;10876;49.038;10.608;2023-04-30T13:18:02;99457.28;;;16.60;100.00
21431;BME280;10876;49.038;10.608;2023-04-30T13:20:29;99431.00;;;16.75;100.00
21431;BME280;10876;49.038;10.608;2023-04-30T13:22:56;99466.44;;;16.52;100.00
21431;BME280;10876;49.038;10.608;2023-04-30T13:25:23;99481.22;;;16.01;100.00
21431;BME280;10876;49.038;10.608;2023-04-30T13:27:50;99490.66;;;15.65;100.00
21431;BME280;10876;49.038;10.608;2023-04-30T13:30:17;99495.34;;;15.38;100.00
21431;BME280;10876;49.038;10.608;2023-04-30T13:32:44;99499.09;;;16.12;100.00
21431;BME280;10876;49.038;10.608;2023-04-30T13:35:13;99503.75;;;16.37;100.00
21431;BME280;10876;49.038;10.608;2023-04-30T13:37:40;99520.16;;;16.34;100.00
21431;BME280;10876;49.038;10.608;2023-04-30T13:40:08;99534.38;;;16.06;100.00
21431;BME280;10876;49.038;10.608;2023-04-30T13:42:36;99538.19;;;16.49;100.00
21431;BME280;10876;49.038;10.608;2023-04-30T13:45:04;99550.34;;;16.56;100.00
21431;BME280;10876;49.038;10.608;2023-04-30T13:47:31;99541.66;;;16.19;100.00
21431;BME280;10876;49.038;10.608;2023-04-30T13:49:58;99538.53;;;16.38;100.00
21431;BME280;10876;49.038;10.608;2023-04-30T13:52:26;99540.72;;;16.71;100.00
21431;BME280;10876;49.038;10.608;2023-04-30T13:54:54;99549.41;;;16.52;100.00
21431;BME280;10876;49.038;10.608;2023-04-30T13:57:21;99563.91;;;16.49;100.00
21431;BME280;10876;49.038;10.608;2023-04-30T13:59:53;99563.78;;;16.02;100.00
21431;BME280;10876;49.038;10.608;2023-04-30T14:02:20;99558.44;;;16.14;100.00
21431;BME280;10876;49.038;10.608;2023-04-30T14:04:46;99556.75;;;16.31;100.00
21431;BME280;10876;49.038;10.608;2023-04-30T14:07:13;99558.91;;;16.16;100.00
21431;BME280;10876;49.038;10.608;2023-04-30T14:09:42;99550.47;;;16.04;100.00
21431;BME280;10876;49.038;10.608;2023-04-30T14:12:09;99549.16;;;16.19;100.00
21431;BME280;10876;49.038;10.608;2023-04-30T14:14:35;99539.06;;;16.32;100.00
21431;BME280;10876;49.038;10.608;2023-04-30T14:17:02;99519.16;;;16.47;100.00
21431;BME280;10876;49.038;10.608;2023-04-30T14:19:30;99499.88;;;16.68;100.00
21431;BME280;10876;49.038;10.608;2023-04-30T14:21:57;99499.84;;;16.85;100.00
21431;BME280;10876;49.038;10.608;2023-04-30T14:24:27;99497.38;;;16.84;100.00
21431;BME280;10876;49.038;10.608;2023-04-30T14:26:55;99489.28;;;16.70;100.00
21431;BME280;10876;49.038;10.608;2023-04-30T14:29:24;99485.31;;;16.50;100.00